sensor_id;sensor_type;location;lat;lon;timestamp;pressure;altitude;pressure_sealevel;temperature;humidity
59103;BME280;43999;51.660;5.616;2023-11-21T00:01:33;100857.34;;;7.50;100.00
59103;BME280;43999;51.660;5.616;2023-11-21T00:04:21;100860.94;;;7.47;100.00
59103;BME280;43999;51.660;5.616;2023-11-21T00:07:09;100867.91;;;7.47;100.00
59103;BME280;43999;51.660;5.616;2023-11-21T00:09:57;100868.09;;;7.42;100.00
59103;BME280;43999;51.660;5.616;2023-11-21T00:12:47;100863.91;;;7.38;100.00
59103;BME280;43999;51.660;5.616;2023-11-21T00:15:35;100871.84;;;7.35;100.00
59103;BME280;43999;51.660;5.616;2023-11-21T00:18:23;100869.47;;;7.29;100.00
59103;BME280;43999;51.660;5.616;2023-11-21T00:21:11;100877.44;;;7.26;100.00
59103;BME280;43999;51.660;5.616;2023-11-21T00:24:00;100871.63;;;7.19;100.00
59103;BME280;43999;51.660;5.616;2023-11-21T00:26:48;100871.69;;;7.17;100.00
59103;BME280;43999;51.660;5.616;2023-11-21T00:29:36;100876.06;;;7.15;100.00
59103;BME280;43999;51.660;5.616;2023-11-21T00:32:26;100873.78;;;7.08;100.00
59103;BME280;43999;51.660;5.616;2023-11-21T00:35:13;100866.94;;;7.05;100.00
59103;BME280;43999;51.660;5.616;2023-11-21T00:38:01;100876.63;;;7.02;100.00
59103;BME280;43999;51.660;5.616;2023-11-21T00:40:53;100876.06;;;6.93;100.00
59103;BME280;43999;51.660;5.616;2023-11-21T00:43:43;100880.50;;;6.91;100.00
59103;BME280;43999;51.660;5.616;2023-11-21T00:46:32;100879.81;;;6.86;100.00
59103;BME280;43999;51.660;5.616;2023-11-21T00:49:20;100873.03;;;6.82;100.00
59103;BME280;43999;51.660;5.616;2023-11-21T00:52:10;100868.00;;;6.77;100.00
59103;BME280;43999;51.660;5.616;2023-11-21T00:54:58;100879.31;;;6.76;100.00
59103;BME280;43999;51.660;5.616;2023-11-21T00:57:49;100872.63;;;6.69;100.00
59103;BME280;43999;51.660;5.616;2023-11-21T01:00:37;100884.84;;;6.67;100.00
59103;BME280;43999;51.660;5.616;2023-11-21T01:03:27;100889.34;;;6.63;100.00
59103;BME280;43999;51.660;5.616;2023-11-21T01:06:18;100894.66;;;6.60;100.00
59103;BME280;43999;51.660;5.616;2023-11-21T01:09:08;100895.59;;;6.58;100.00
59103;BME280;43999;51.660;5.616;2023-11-21T01:11:59;100898.38;;;6.53;100.00
59103;BME280;43999;51.660;5.616;2023-11-21T01:14:47;100901.09;;;6.50;100.00
59103;BME280;43999;51.660;5.616;2023-11-21T01:17:35;100915.94;;;6.48;100.00
59103;BME280;43999;51.660;5.616;2023-11-21T01:20:25;100918.53;;;6.48;100.00
59103;BME280;43999;51.660;5.616;2023-11-21T01:23:14;100925.59;;;6.44;100.00
59103;BME280;43999;51.660;5.616;2023-11-21T01:26:02;100922.94;;;6.46;100.00
59103;BME280;43999;51.660;5.616;2023-11-21T01:28:51;100927.34;;;6.44;100.00
59103;BME280;43999;51.660;5.616;2023-11-21T01:31:39;100933.31;;;6.48;100.00
59103;BME280;43999;51.660;5.616;2023-11-21T01:34:28;100921.25;;;6.45;100.00
59103;BME280;43999;51.660;5.616;2023-11-21T01:37:16;100927.38;;;6.42;100.00
59103;BME280;43999;51.660;5.616;2023-11-21T01:40:07;100926.44;;;6.45;100.00
59103;BME280;43999;51.660;5.616;2023-11-21T01:42:58;100930.75;;;6.46;100.00
59103;BME280;43999;51.660;5.616;2023-11-21T01:45:46;100937.53;;;6.50;100.00
59103;BME280;43999;51.660;5.616;2023-11-21T01:48:35;100945.28;;;6.52;100.00
59103;BME280;43999;51.660;5.616;2023-11-21T01:51:24;100936.47;;;6.56;100.00
59103;BME280;43999;51.660;5.616;2023-11-21T01:54:16;100929.56;;;6.55;100.00
59103;BME280;43999;51.660;5.616;2023-11-21T01:57:05;100929.44;;;6.58;100.00
59103;BME280;43999;51.660;5.616;2023-11-21T01:59:55;100924.19;;;6.59;100.00
59103;BME280;43999;51.660;5.616;2023-11-21T02:02:48;100921.59;;;6.59;100.00
59103;BME280;43999;51.660;5.616;2023-11-21T02:05:36;100932.09;;;6.56;100.00
59103;BME280;43999;51.660;5.616;2023-11-21T02:08:26;100942.47;;;6.58;100.00
59103;BME280;43999;51.660;5.616;2023-11-21T02:11:14;100943.41;;;6.57;100.00
59103;BME280;43999;51.660;5.616;2023-11-21T02:14:03;100947.69;;;6.58;100.00
59103;BME280;43999;51.660;5.616;2023-11-21T02:16:54;100951.16;;;6.58;100.00
59103;BME280;43999;51.660;5.616;2023-11-21T02:19:43;100951.22;;;6.57;100.00
59103;BME280;43999;51.660;5.616;2023-11-21T02:22:34;100959.19;;;6.52;100.00
59103;BME280;43999;51.660;5.616;2023-11-21T02:25:30;100960.91;;;6.52;100.00
59103;BME280;43999;51.660;5.616;2023-11-21T02:28:21;100966.13;;;6.52;100.00
59103;BME280;43999;51.660;5.616;2023-11-21T02:31:14;100963.50;;;6.52;100.00
59103;BME280;43999;51.660;5.616;2023-11-21T02:34:02;100966.28;;;6.47;100.00
59103;BME280;43999;51.660;5.616;2023-11-21T02:36:51;100962.00;;;6.46;100.00
59103;BME280;43999;51.660;5.616;2023-11-21T02:39:39;100963.84;;;6.42;100.00
59103;BME280;43999;51.660;5.616;2023-11-21T02:42:29;100969.03;;;6.42;100.00
59103;BME280;43999;51.660;5.616;2023-11-21T02:45:23;100963.84;;;6.42;100.00
59103;BME280;43999;51.660;5.616;2023-11-21T02:48:13;100975.06;;;6.44;100.00
59103;BME280;43999;51.660;5.616;2023-11-21T02:51:03;100976.13;;;6.39;100.00
59103;BME280;43999;51.660;5.616;2023-11-21T02:53:51;100967.63;;;6.34;100.00
59103;BME280;43999;51.660;5.616;2023-11-21T02:56:39;100968.47;;;6.34;100.00
59103;BME280;43999;51.660;5.616;2023-11-21T02:59:27;100981.47;;;6.34;100.00
59103;BME280;43999;51.660;5.616;2023-11-21T03:02:15;100968.63;;;6.30;100.00
59103;BME280;43999;51.660;5.616;2023-11-21T03:05:05;100970.28;;;6.32;100.00
59103;BME280;43999;51.660;5.616;2023-11-21T03:07:53;100970.34;;;6.31;100.00
59103;BME280;43999;51.660;5.616;2023-11-21T03:10:41;100971.28;;;6.28;100.00
59103;BME280;43999;51.660;5.616;2023-11-21T03:13:30;100968.00;;;6.23;100.00
59103;BME280;43999;51.660;5.616;2023-11-21T03:16:20;100970.59;;;6.23;100.00
59103;BME280;43999;51.660;5.616;2023-11-21T03:19:08;100977.63;;;6.19;100.00
59103;BME280;43999;51.660;5.616;2023-11-21T03:21:56;100976.72;;;6.20;100.00
59103;BME280;43999;51.660;5.616;2023-11-21T03:24:44;100987.09;;;6.22;100.00
59103;BME280;43999;51.660;5.616;2023-11-21T03:27:32;100986.25;;;6.21;100.00
59103;BME280;43999;51.660;5.616;2023-11-21T03:30:20;100992.41;;;6.19;100.00
59103;BME280;43999;51.660;5.616;2023-11-21T03:33:08;100994.09;;;6.20;100.00
59103;BME280;43999;51.660;5.616;2023-11-21T03:35:56;100990.53;;;6.22;100.00
59103;BME280;43999;51.660;5.616;2023-11-21T03:38:45;100986.31;;;6.20;100.00
59103;BME280;43999;51.660;5.616;2023-11-21T03:41:33;100995.00;;;6.19;100.00
59103;BME280;43999;51.660;5.616;2023-11-21T03:44:21;101003.53;;;6.22;100.00
59103;BME280;43999;51.660;5.616;2023-11-21T03:47:09;100996.72;;;6.20;100.00
59103;BME280;43999;51.660;5.616;2023-11-21T03:49:57;101000.19;;;6.19;100.00
59103;BME280;43999;51.660;5.616;2023-11-21T03:52:47;100996.81;;;6.17;100.00
59103;BME280;43999;51.660;5.616;2023-11-21T03:55:34;100989.00;;;6.17;100.00
59103;BME280;43999;51.660;5.616;2023-11-21T03:58:24;101000.16;;;6.20;100.00
59103;BME280;43999;51.660;5.616;2023-11-21T04:01:12;101011.56;;;6.16;100.00
59103;BME280;43999;51.660;5.616;2023-11-21T04:04:06;101004.75;;;6.12;100.00
59103;BME280;43999;51.660;5.616;2023-11-21T04:06:54;101006.59;;;6.08;100.00
59103;BME280;43999;51.660;5.616;2023-11-21T04:09:42;101010.16;;;6.06;100.00
59103;BME280;43999;51.660;5.616;2023-11-21T04:12:30;101015.53;;;6.01;100.00
59103;BME280;43999;51.660;5.616;2023-11-21T04:15:18;101015.63;;;5.98;100.00
59103;BME280;43999;51.660;5.616;2023-11-21T04:18:06;101023.47;;;5.95;100.00
59103;BME280;43999;51.660;5.616;2023-11-21T04:20:55;101027.13;;;5.89;100.00
59103;BME280;43999;51.660;5.616;2023-11-21T04:23:43;101034.91;;;5.89;100.00
59103;BME280;43999;51.660;5.616;2023-11-21T04:26:30;101037.63;;;5.86;100.00
59103;BME280;43999;51.660;5.616;2023-11-21T04:29:21;101028.09;;;5.85;100.00
59103;BME280;43999;51.660;5.616;2023-11-21T04:32:10;101042.03;;;5.84;100.00
59103;BME280;43999;51.660;5.616;2023-11-21T04:34:58;101050.66;;;5.85;100.00
59103;BME280;43999;51.660;5.616;2023-11-21T04:37:46;101047.31;;;5.81;100.00
59103;BME280;43999;51.660;5.616;2023-11-21T04:40:35;101047.41;;;5.78;100.00
59103;BME280;43999;51.660;5.616;2023-11-21T04:43:23;101055.31;;;5.75;100.00
59103;BME280;43999;51.660;5.616;2023-11-21T04:46:12;101058.66;;;5.79;100.00
59103;BME280;43999;51.660;5.616;2023-11-21T04:49:01;101060.41;;;5.78;100.00
59103;BME280;43999;51.660;5.616;2023-11-21T04:51:49;101064.59;;;5.82;100.00
59103;BME280;43999;51.660;5.616;2023-11-21T04:54:37;101064.66;;;5.81;100.00
59103;BME280;43999;51.660;5.616;2023-11-21T04:57:25;101075.88;;;5.83;100.00
59103;BME280;43999;51.660;5.616;2023-11-21T05:00:13;101078.38;;;5.86;100.00
59103;BME280;43999;51.660;5.616;2023-11-21T05:03:04;101073.13;;;5.87;100.00
59103;BME280;43999;51.660;5.616;2023-11-21T05:05:56;101077.47;;;5.87;100.00
59103;BME280;43999;51.660;5.616;2023-11-21T05:08:44;101086.91;;;5.91;100.00
59103;BME280;43999;51.660;5.616;2023-11-21T05:11:32;101093.75;;;5.93;100.00
59103;BME280;43999;51.660;5.616;2023-11-21T05:14:20;101096.38;;;5.93;100.00
59103;BME280;43999;51.660;5.616;2023-11-21T05:17:09;101082.63;;;5.88;100.00
59103;BME280;43999;51.660;5.616;2023-11-21T05:19:57;101089.53;;;5.89;100.00
59103;BME280;43999;51.660;5.616;2023-11-21T05:22:44;101081.78;;;5.88;100.00
59103;BME280;43999;51.660;5.616;2023-11-21T05:25:33;101092.09;;;5.91;100.00
59103;BME280;43999;51.660;5.616;2023-11-21T05:28:23;101099.84;;;5.92;100.00
59103;BME280;43999;51.660;5.616;2023-11-21T05:31:12;101105.78;;;5.98;100.00
59103;BME280;43999;51.660;5.616;2023-11-21T05:34:04;101097.09;;;5.99;100.00
59103;BME280;43999;51.660;5.616;2023-11-21T05:36:55;101110.16;;;5.96;100.00
59103;BME280;43999;51.660;5.616;2023-11-21T05:39:43;101110.25;;;5.92;100.00
59103;BME280;43999;51.660;5.616;2023-11-21T05:42:31;101108.50;;;5.93;100.00
59103;BME280;43999;51.660;5.616;2023-11-21T05:45:19;101109.41;;;5.92;100.00
59103;BME280;43999;51.660;5.616;2023-11-21T05:48:08;101118.84;;;5.95;100.00
59103;BME280;43999;51.660;5.616;2023-11-21T05:50:57;101126.63;;;5.96;100.00
59103;BME280;43999;51.660;5.616;2023-11-21T05:53:55;101129.31;;;5.93;100.00
59103;BME280;43999;51.660;5.616;2023-11-21T05:56:50;101132.88;;;5.90;100.00
59103;BME280;43999;51.660;5.616;2023-11-21T05:59:39;101138.06;;;5.90;100.00
59103;BME280;43999;51.660;5.616;2023-11-21T06:02:29;101143.28;;;5.90;100.00
59103;BME280;43999;51.660;5.616;2023-11-21T06:05:22;101143.31;;;5.89;100.00
59103;BME280;43999;51.660;5.616;2023-11-21T06:08:16;101148.47;;;5.90;100.00
59103;BME280;43999;51.660;5.616;2023-11-21T06:11:21;101157.06;;;5.92;100.00
59103;BME280;43999;51.660;5.616;2023-11-21T06:14:08;101148.38;;;5.93;100.00
59103;BME280;43999;51.660;5.616;2023-11-21T06:16:58;101156.09;;;5.98;100.00
59103;BME280;43999;51.660;5.616;2023-11-21T06:19:47;101159.59;;;5.96;100.00
59103;BME280;43999;51.660;5.616;2023-11-21T06:22:36;101157.06;;;5.92;100.00
59103;BME280;43999;51.660;5.616;2023-11-21T06:25:24;101167.38;;;5.96;100.00
59103;BME280;43999;51.660;5.616;2023-11-21T06:28:13;101159.72;;;5.91;100.00
59103;BME280;43999;51.660;5.616;2023-11-21T06:31:05;101165.72;;;5.93;100.00
59103;BME280;43999;51.660;5.616;2023-11-21T06:33:54;101169.97;;;5.97;100.00
59103;BME280;43999;51.660;5.616;2023-11-21T06:36:51;101163.94;;;5.95;100.00
59103;BME280;43999;51.660;5.616;2023-11-21T06:39:39;101181.22;;;5.98;100.00
59103;BME280;43999;51.660;5.616;2023-11-21T06:42:27;101169.94;;;5.99;100.00
59103;BME280;43999;51.660;5.616;2023-11-21T06:45:17;101176.03;;;5.98;100.00
59103;BME280;43999;51.660;5.616;2023-11-21T06:48:05;101173.31;;;6.01;100.00
59103;BME280;43999;51.660;5.616;2023-11-21T06:50:55;101181.81;;;6.07;100.00
59103;BME280;43999;51.660;5.616;2023-11-21T06:53:42;101176.66;;;6.06;100.00
59103;BME280;43999;51.660;5.616;2023-11-21T06:56:31;101174.91;;;6.06;100.00
59103;BME280;43999;51.660;5.616;2023-11-21T06:59:21;101192.09;;;6.12;100.00
59103;BME280;43999;51.660;5.616;2023-11-21T07:02:10;101192.91;;;6.14;100.00
59103;BME280;43999;51.660;5.616;2023-11-21T07:04:59;101195.34;;;6.19;100.00
59103;BME280;43999;51.660;5.616;2023-11-21T07:07:48;101204.84;;;6.21;100.00
59103;BME280;43999;51.660;5.616;2023-11-21T07:10:36;101203.13;;;6.20;100.00
59103;BME280;43999;51.660;5.616;2023-11-21T07:13:25;101214.31;;;6.22;100.00
59103;BME280;43999;51.660;5.616;2023-11-21T07:16:13;101204.84;;;6.21;100.00
59103;BME280;43999;51.660;5.616;2023-11-21T07:19:03;101211.69;;;6.24;100.00
59103;BME280;43999;51.660;5.616;2023-11-21T07:21:54;101215.94;;;6.26;100.00
59103;BME280;43999;51.660;5.616;2023-11-21T07:24:44;101228.91;;;6.28;100.00
59103;BME280;43999;51.660;5.616;2023-11-21T07:27:33;101225.44;;;6.29;100.00
59103;BME280;43999;51.660;5.616;2023-11-21T07:30:23;101243.47;;;6.35;100.00
59103;BME280;43999;51.660;5.616;2023-11-21T07:33:12;101241.69;;;6.36;100.00
59103;BME280;43999;51.660;5.616;2023-11-21T07:36:00;101241.59;;;6.39;100.00
59103;BME280;43999;51.660;5.616;2023-11-21T07:38:49;101244.91;;;6.44;100.00
59103;BME280;43999;51.660;5.616;2023-11-21T07:41:37;101257.84;;;6.47;100.00
59103;BME280;43999;51.660;5.616;2023-11-21T07:44:32;101252.69;;;6.45;100.00
59103;BME280;43999;51.660;5.616;2023-11-21T07:47:20;101260.34;;;6.50;100.00
59103;BME280;43999;51.660;5.616;2023-11-21T07:50:09;101266.44;;;6.51;100.00
59103;BME280;43999;51.660;5.616;2023-11-21T07:52:59;101267.22;;;6.53;100.00
59103;BME280;43999;51.660;5.616;2023-11-21T07:55:47;101268.94;;;6.54;100.00
59103;BME280;43999;51.660;5.616;2023-11-21T07:58:36;101268.94;;;6.54;100.00
59103;BME280;43999;51.660;5.616;2023-11-21T08:01:27;101277.47;;;6.59;100.00
59103;BME280;43999;51.660;5.616;2023-11-21T08:04:16;101280.91;;;6.59;100.00
59103;BME280;43999;51.660;5.616;2023-11-21T08:07:04;101279.97;;;6.62;100.00
59103;BME280;43999;51.660;5.616;2023-11-21T08:09:52;101270.41;;;6.62;100.00
59103;BME280;43999;51.660;5.616;2023-11-21T08:12:41;101268.53;;;6.66;100.00
59103;BME280;43999;51.660;5.616;2023-11-21T08:15:31;101285.84;;;6.69;100.00
59103;BME280;43999;51.660;5.616;2023-11-21T08:18:23;101287.56;;;6.70;100.00
59103;BME280;43999;51.660;5.616;2023-11-21T08:21:13;101294.41;;;6.72;100.00
59103;BME280;43999;51.660;5.616;2023-11-21T08:24:01;101301.19;;;6.78;100.00
59103;BME280;43999;51.660;5.616;2023-11-21T08:26:49;101303.66;;;6.82;100.00
59103;BME280;43999;51.660;5.616;2023-11-21T08:29:40;101314.81;;;6.86;100.00
59103;BME280;43999;51.660;5.616;2023-11-21T08:32:28;101312.16;;;6.88;100.00
59103;BME280;43999;51.660;5.616;2023-11-21T08:35:17;101308.63;;;6.90;100.00
59103;BME280;43999;51.660;5.616;2023-11-21T08:38:07;101317.22;;;6.92;100.00
59103;BME280;43999;51.660;5.616;2023-11-21T08:40:57;101318.84;;;6.96;100.00
59103;BME280;43999;51.660;5.616;2023-11-21T08:43:49;101330.13;;;6.97;100.00
59103;BME280;43999;51.660;5.616;2023-11-21T08:46:40;101339.66;;;6.98;100.00
59103;BME280;43999;51.660;5.616;2023-11-21T08:49:29;101343.94;;;7.00;100.00
59103;BME280;43999;51.660;5.616;2023-11-21T08:52:19;101345.56;;;7.03;100.00
59103;BME280;43999;51.660;5.616;2023-11-21T08:55:27;101348.06;;;7.06;100.00
59103;BME280;43999;51.660;5.616;2023-11-21T08:58:16;101346.19;;;7.11;100.00
59103;BME280;43999;51.660;5.616;2023-11-21T09:01:07;101346.94;;;7.15;100.00
59103;BME280;43999;51.660;5.616;2023-11-21T09:03:56;101337.25;;;7.18;100.00
59103;BME280;43999;51.660;5.616;2023-11-21T09:06:44;101346.50;;;7.29;100.00
59103;BME280;43999;51.660;5.616;2023-11-21T09:09:32;101340.25;;;7.34;100.00
59103;BME280;43999;51.660;5.616;2023-11-21T09:12:20;101352.06;;;7.45;100.00
59103;BME280;43999;51.660;5.616;2023-11-21T09:15:08;101362.19;;;7.54;100.00
59103;BME280;43999;51.660;5.616;2023-11-21T09:17:57;101362.97;;;7.58;100.00
59103;BME280;43999;51.660;5.616;2023-11-21T09:20:45;101369.72;;;7.63;100.00
59103;BME280;43999;51.660;5.616;2023-11-21T09:23:34;101382.66;;;7.66;100.00
59103;BME280;43999;51.660;5.616;2023-11-21T09:26:22;101371.34;;;7.67;100.00
59103;BME280;43999;51.660;5.616;2023-11-21T09:29:12;101370.41;;;7.70;100.00
59103;BME280;43999;51.660;5.616;2023-11-21T09:32:00;101375.41;;;7.76;100.00
59103;BME280;43999;51.660;5.616;2023-11-21T09:34:49;101372.69;;;7.79;100.00
59103;BME280;43999;51.660;5.616;2023-11-21T09:37:38;101374.31;;;7.82;100.00
59103;BME280;43999;51.660;5.616;2023-11-21T09:40:26;101384.66;;;7.85;100.00
59103;BME280;43999;51.660;5.616;2023-11-21T09:43:20;101392.44;;;7.86;100.00
59103;BME280;43999;51.660;5.616;2023-11-21T09:46:09;101396.81;;;7.86;100.00
59103;BME280;43999;51.660;5.616;2023-11-21T09:49:01;101399.31;;;7.89;100.00
59103;BME280;43999;51.660;5.616;2023-11-21T09:51:55;101413.16;;;7.91;100.00
59103;BME280;43999;51.660;5.616;2023-11-21T09:54:46;101411.53;;;7.88;100.00
59103;BME280;43999;51.660;5.616;2023-11-21T09:57:35;101414.09;;;7.90;100.00
59103;BME280;43999;51.660;5.616;2023-11-21T10:00:23;101418.22;;;7.96;100.00
59103;BME280;43999;51.660;5.616;2023-11-21T10:03:13;101424.22;;;7.98;100.00
59103;BME280;43999;51.660;5.616;2023-11-21T10:06:03;101428.50;;;8.00;100.00
59103;BME280;43999;51.660;5.616;2023-11-21T10:08:54;101430.13;;;8.04;100.00
59103;BME280;43999;51.660;5.616;2023-11-21T10:11:44;101427.50;;;8.04;100.00
59103;BME280;43999;51.660;5.616;2023-11-21T10:14:36;101427.41;;;8.07;100.00
59103;BME280;43999;51.660;5.616;2023-11-21T10:17:24;101429.97;;;8.09;100.00
59103;BME280;43999;51.660;5.616;2023-11-21T10:20:17;101442.84;;;8.14;100.00
59103;BME280;43999;51.660;5.616;2023-11-21T10:23:07;101453.19;;;8.17;100.00
59103;BME280;43999;51.660;5.616;2023-11-21T10:26:00;101456.50;;;8.22;100.00
59103;BME280;43999;51.660;5.616;2023-11-21T10:29:03;101460.72;;;8.26;100.00
59103;BME280;43999;51.660;5.616;2023-11-21T10:31:53;101456.19;;;8.31;100.00
59103;BME280;43999;51.660;5.616;2023-11-21T10:34:56;101460.28;;;8.38;100.00
59103;BME280;43999;51.660;5.616;2023-11-21T10:37:44;101457.63;;;8.40;100.00
59103;BME280;43999;51.660;5.616;2023-11-21T10:40:47;101459.03;;;8.50;100.00
59103;BME280;43999;51.660;5.616;2023-11-21T10:43:38;101458.69;;;8.59;100.00
59103;BME280;43999;51.660;5.616;2023-11-21T10:46:31;101465.19;;;8.73;100.00
59103;BME280;43999;51.660;5.616;2023-11-21T10:49:29;101477.03;;;8.83;100.00
59103;BME280;43999;51.660;5.616;2023-11-21T10:52:19;101473.28;;;8.90;100.00
59103;BME280;43999;51.660;5.616;2023-11-21T10:55:18;101473.09;;;8.95;100.00
59103;BME280;43999;51.660;5.616;2023-11-21T10:58:15;101479.03;;;9.00;100.00
59103;BME280;43999;51.660;5.616;2023-11-21T11:01:10;101471.97;;;9.02;100.00
59103;BME280;43999;51.660;5.616;2023-11-21T11:04:06;101473.47;;;9.09;100.00
59103;BME280;43999;51.660;5.616;2023-11-21T11:07:05;101477.53;;;9.17;100.00
59103;BME280;43999;51.660;5.616;2023-11-21T11:10:06;101470.50;;;9.19;100.00
59103;BME280;43999;51.660;5.616;2023-11-21T11:12:57;101475.78;;;9.17;100.00
59103;BME280;43999;51.660;5.616;2023-11-21T11:15:48;101486.13;;;9.20;100.00
59103;BME280;43999;51.660;5.616;2023-11-21T11:18:36;101490.53;;;9.18;100.00
59103;BME280;43999;51.660;5.616;2023-11-21T11:25:07;101485.25;;;9.20;100.00
59103;BME280;43999;51.660;5.616;2023-11-21T11:28:21;101491.03;;;9.28;100.00
59103;BME280;43999;51.660;5.616;2023-11-21T11:34:36;101491.31;;;9.44;100.00
59103;BME280;43999;51.660;5.616;2023-11-21T11:37:28;101503.25;;;9.51;100.00
59103;BME280;43999;51.660;5.616;2023-11-21T11:40:22;101507.69;;;9.49;100.00
59103;BME280;43999;51.660;5.616;2023-11-21T11:43:41;101522.59;;;9.47;100.00
59103;BME280;43999;51.660;5.616;2023-11-21T11:46:45;101521.84;;;9.43;100.00
59103;BME280;43999;51.660;5.616;2023-11-21T11:53:20;101527.47;;;9.32;100.00
59103;BME280;43999;51.660;5.616;2023-11-21T11:56:27;101544.28;;;9.27;100.00
59103;BME280;43999;51.660;5.616;2023-11-21T11:59:18;101547.84;;;9.24;100.00
59103;BME280;43999;51.660;5.616;2023-11-21T12:02:09;101553.31;;;9.18;100.00
59103;BME280;43999;51.660;5.616;2023-11-21T12:05:11;101561.16;;;9.18;100.00
59103;BME280;43999;51.660;5.616;2023-11-21T12:08:17;101562.13;;;9.15;100.00
59103;BME280;43999;51.660;5.616;2023-11-21T12:11:18;101557.97;;;9.10;100.00
59103;BME280;43999;51.660;5.616;2023-11-21T12:14:07;101563.25;;;9.08;100.00
59103;BME280;43999;51.660;5.616;2023-11-21T12:17:05;101571.09;;;9.08;100.00
59103;BME280;43999;51.660;5.616;2023-11-21T12:20:07;101566.81;;;9.06;100.00
59103;BME280;43999;51.660;5.616;2023-11-21T12:23:16;101565.06;;;9.06;100.00
59103;BME280;43999;51.660;5.616;2023-11-21T12:26:14;101567.47;;;9.12;100.00
59103;BME280;43999;51.660;5.616;2023-11-21T12:29:06;101581.16;;;9.19;100.00
59103;BME280;43999;51.660;5.616;2023-11-21T12:32:11;101576.78;;;9.20;100.00
59103;BME280;43999;51.660;5.616;2023-11-21T12:35:02;101588.22;;;9.17;100.00
59103;BME280;43999;51.660;5.616;2023-11-21T12:38:03;101585.72;;;9.14;100.00
59103;BME280;43999;51.660;5.616;2023-11-21T12:40:52;101589.22;;;9.13;100.00
59103;BME280;43999;51.660;5.616;2023-11-21T12:43:48;101592.81;;;9.10;100.00
59103;BME280;43999;51.660;5.616;2023-11-21T12:46:36;101587.63;;;9.09;100.00
59103;BME280;43999;51.660;5.616;2023-11-21T12:49:24;101596.41;;;9.08;100.00
59103;BME280;43999;51.660;5.616;2023-11-21T12:52:17;101591.06;;;9.11;100.00
59103;BME280;43999;51.660;5.616;2023-11-21T12:55:06;101583.38;;;9.06;100.00
59103;BME280;43999;51.660;5.616;2023-11-21T12:57:57;101579.72;;;9.10;100.00
59103;BME280;43999;51.660;5.616;2023-11-21T13:00:47;101584.00;;;9.13;100.00
59103;BME280;43999;51.660;5.616;2023-11-21T13:03:58;101597.03;;;9.14;100.00
59103;BME280;43999;51.660;5.616;2023-11-21T13:06:52;101594.41;;;9.14;100.00
59103;BME280;43999;51.660;5.616;2023-11-21T13:09:43;101605.72;;;9.15;100.00
59103;BME280;43999;51.660;5.616;2023-11-21T13:12:34;101598.78;;;9.14;100.00
59103;BME280;43999;51.660;5.616;2023-11-21T13:15:24;101604.91;;;9.13;100.00
59103;BME280;43999;51.660;5.616;2023-11-21T13:18:12;101611.97;;;9.11;100.00
59103;BME280;43999;51.660;5.616;2023-11-21T13:21:05;101621.44;;;9.13;100.00
59103;BME280;43999;51.660;5.616;2023-11-21T13:24:07;101611.97;;;9.11;100.00
59103;BME280;43999;51.660;5.616;2023-11-21T13:26:56;101611.97;;;9.11;100.00
59103;BME280;43999;51.660;5.616;2023-11-21T13:29:46;101609.41;;;9.09;100.00
59103;BME280;43999;51.660;5.616;2023-11-21T13:32:35;101619.81;;;9.11;100.00
59103;BME280;43999;51.660;5.616;2023-11-21T13:35:26;101630.22;;;9.12;100.00
59103;BME280;43999;51.660;5.616;2023-11-21T13:38:22;101626.72;;;9.12;100.00
59103;BME280;43999;51.660;5.616;2023-11-21T13:41:15;101624.13;;;9.12;100.00
59103;BME280;43999;51.660;5.616;2023-11-21T13:44:05;101630.16;;;9.14;100.00
59103;BME280;43999;51.660;5.616;2023-11-21T13:47:14;101626.53;;;9.18;100.00
59103;BME280;43999;51.660;5.616;2023-11-21T13:50:03;101640.22;;;9.25;100.00
59103;BME280;43999;51.660;5.616;2023-11-21T13:52:54;101638.22;;;9.33;100.00
59103;BME280;43999;51.660;5.616;2023-11-21T13:55:45;101649.34;;;9.38;100.00
59103;BME280;43999;51.660;5.616;2023-11-21T13:58:39;101641.59;;;9.35;100.00
59103;BME280;43999;51.660;5.616;2023-11-21T14:01:44;101650.25;;;9.37;100.00
59103;BME280;43999;51.660;5.616;2023-11-21T14:04:42;101651.19;;;9.36;100.00
59103;BME280;43999;51.660;5.616;2023-11-21T14:08:01;101656.41;;;9.36;100.00
59103;BME280;43999;51.660;5.616;2023-11-21T14:10:58;101662.47;;;9.37;100.00
59103;BME280;43999;51.660;5.616;2023-11-21T14:13:54;101662.53;;;9.35;100.00
59103;BME280;43999;51.660;5.616;2023-11-21T14:16:42;101672.94;;;9.37;100.00
59103;BME280;43999;51.660;5.616;2023-11-21T14:19:32;101672.94;;;9.37;100.00
59103;BME280;43999;51.660;5.616;2023-11-21T14:22:22;101682.63;;;9.35;100.00
59103;BME280;43999;51.660;5.616;2023-11-21T14:25:15;101693.97;;;9.33;100.00
59103;BME280;43999;51.660;5.616;2023-11-21T14:28:20;101702.88;;;9.28;100.00
59103;BME280;43999;51.660;5.616;2023-11-21T14:31:13;101701.34;;;9.22;100.00
59103;BME280;43999;51.660;5.616;2023-11-21T14:34:04;101700.66;;;9.17;100.00
59103;BME280;43999;51.660;5.616;2023-11-21T14:36:58;101708.50;;;9.17;100.00
59103;BME280;43999;51.660;5.616;2023-11-21T14:40:11;101712.13;;;9.13;100.00
59103;BME280;43999;51.660;5.616;2023-11-21T14:43:07;101720.81;;;9.13;100.00
59103;BME280;43999;51.660;5.616;2023-11-21T14:46:03;101720.13;;;9.08;100.00
59103;BME280;43999;51.660;5.616;2023-11-21T14:49:01;101726.34;;;9.04;100.00
59103;BME280;43999;51.660;5.616;2023-11-21T14:52:07;101726.44;;;9.01;100.00
59103;BME280;43999;51.660;5.616;2023-11-21T14:55:19;101726.53;;;8.98;100.00
59103;BME280;43999;51.660;5.616;2023-11-21T14:58:58;101743.16;;;8.97;100.00
59103;BME280;43999;51.660;5.616;2023-11-21T15:02:04;101748.44;;;8.95;100.00
59103;BME280;43999;51.660;5.616;2023-11-21T15:05:03;101763.19;;;8.96;100.00
59103;BME280;43999;51.660;5.616;2023-11-21T15:08:06;101770.25;;;8.94;100.00